Time;durP1;ratioP1;P1;durP2;ratioP2;P2;SDS_P1;SDS_P2;PMS_P1;PMS_P2;Temp;Humidity;BMP_temperature;BMP_pressure;BME280_temperature;BME280_humidity;BME280_pressure;Samples;Min_cycle;Max_cycle;Signal;HPM_P1;HPM_P2
2022/01/14 00:02:17;;;;;;;;;103.50;80.50;2.80;59.00;;;;;;5056460;28;8785;-73
2022/01/14 00:04:43;;;;;;;;;101.75;85.00;3.00;58.90;;;;;;5056379;28;8897;-73
2022/01/14 00:07:10;;;;;;;;;109.50;95.50;3.20;58.20;;;;;;5056053;28;8905;-72
2022/01/14 00:09:38;;;;;;;;;110.25;92.00;3.40;57.40;;;;;;5055260;28;8763;-73
2022/01/14 00:12:11;;;;;;;;;104.50;85.75;3.70;56.80;;;;;;5056229;28;8917;-72
2022/01/14 00:14:43;;;;;;;;;94.50;77.25;3.30;56.70;;;;;;5055917;28;8763;-73
2022/01/14 00:17:13;;;;;;;;;97.25;77.00;2.30;60.00;;;;;;5056187;28;8837;-72
2022/01/14 00:19:41;;;;;;;;;95.25;74.00;2.60;60.60;;;;;;5056079;28;8790;-73
2022/01/14 00:22:12;;;;;;;;;111.00;93.75;2.50;60.50;;;;;;5055827;28;8790;-73
2022/01/14 00:35:24;;;;;;;;;161.00;152.75;3.50;58.40;;;;;;5055731;28;8864;-72
2022/01/14 00:37:50;;;;;;;;;192.00;168.25;3.60;58.10;;;;;;5055659;28;8876;-73
2022/01/14 00:40:16;;;;;;;;;168.00;152.25;3.40;58.60;;;;;;5055468;28;8759;-73
2022/01/14 00:42:42;;;;;;;;;144.25;133.75;3.50;58.40;;;;;;5055455;28;8767;-71
2022/01/14 00:45:10;;;;;;;;;147.00;132.00;3.80;57.70;;;;;;5055358;28;8895;-72
2022/01/14 00:47:37;;;;;;;;;225.75;204.75;3.60;57.90;;;;;;5055363;28;8875;-72
2022/01/14 00:50:09;;;;;;;;;217.00;196.00;3.10;60.80;;;;;;5055237;28;8783;-73
2022/01/14 00:52:36;;;;;;;;;192.00;175.25;2.60;63.70;;;;;;5055472;28;9445;-74
2022/01/14 00:55:03;;;;;;;;;212.75;190.00;2.60;63.60;;;;;;5055283;28;8802;-73
2022/01/14 01:00:17;;;;;;;;;188.50;175.25;2.30;63.40;;;;;;5043873;28;8776;-73
2022/01/14 01:02:43;;;;;;;;;200.00;177.00;2.30;63.80;;;;;;5055274;28;8868;-72
2022/01/14 01:05:12;;;;;;;;;188.50;181.75;2.20;64.30;;;;;;5054921;28;8767;-72
2022/01/14 01:07:40;;;;;;;;;177.75;158.75;2.60;63.00;;;;;;5055043;28;8811;-73
2022/01/14 01:10:07;;;;;;;;;168.25;152.75;2.60;62.00;;;;;;5053805;28;8786;-72
2022/01/14 01:12:47;;;;;;;;;191.00;167.25;2.70;61.60;;;;;;5055138;28;8877;-71
2022/01/14 01:15:15;;;;;;;;;171.50;152.50;2.70;61.50;;;;;;5054809;28;8810;-74
2022/01/14 01:17:41;;;;;;;;;180.50;157.50;2.90;61.50;;;;;;5055135;28;8763;-72
2022/01/14 01:20:11;;;;;;;;;160.50;143.75;3.20;60.60;;;;;;5054644;28;8774;-73
2022/01/14 01:22:37;;;;;;;;;160.50;142.00;3.00;60.60;;;;;;5054934;28;8886;-73
2022/01/14 01:25:03;;;;;;;;;144.00;130.25;2.80;62.30;;;;;;5054609;28;8893;-71
2022/01/14 01:27:31;;;;;;;;;138.00;125.00;3.00;60.90;;;;;;5054576;28;8802;-73
2022/01/14 01:30:12;;;;;;;;;140.50;123.50;3.30;60.50;;;;;;5054461;28;8783;-72
2022/01/14 01:32:39;;;;;;;;;142.75;125.50;3.20;60.50;;;;;;5054585;28;9531;-73
2022/01/14 01:35:05;;;;;;;;;127.75;117.25;3.20;60.00;;;;;;5054388;28;8825;-72
2022/01/14 01:37:30;;;;;;;;;124.75;117.25;3.40;59.10;;;;;;5054788;28;8822;-72
2022/01/14 01:39:56;;;;;;;;;128.25;113.25;3.80;58.40;;;;;;5054475;28;8771;-73
2022/01/14 01:42:28;;;;;;;;;120.25;111.50;3.90;57.30;;;;;;5054507;28;8767;-73
2022/01/14 01:44:54;;;;;;;;;131.00;115.75;4.00;56.90;;;;;;5054467;28;8816;-73
2022/01/14 01:47:22;;;;;;;;;139.50;122.75;4.00;56.60;;;;;;5054443;28;8866;-74
2022/01/14 01:49:48;;;;;;;;;130.00;118.25;4.10;56.30;;;;;;5054608;28;8860;-71
2022/01/14 01:52:14;;;;;;;;;130.00;121.00;4.00;56.30;;;;;;5054352;28;8783;-73
2022/01/14 01:54:40;;;;;;;;;132.75;119.00;4.10;56.10;;;;;;5054358;28;8832;-73
2022/01/14 01:57:06;;;;;;;;;130.75;123.50;4.00;56.60;;;;;;5054409;28;8878;-72
2022/01/14 01:59:32;;;;;;;;;125.25;114.75;3.80;57.00;;;;;;5054243;28;8848;-72
2022/01/14 02:01:59;;;;;;;;;121.75;115.50;3.60;57.00;;;;;;5054202;28;8783;-72
2022/01/14 02:04:27;;;;;;;;;132.50;112.25;3.90;56.20;;;;;;5054107;28;8751;-72
2022/01/14 02:06:54;;;;;;;;;144.00;129.75;3.70;56.50;;;;;;5054371;28;9575;-73
2022/01/14 02:09:22;;;;;;;;;134.75;122.75;3.80;56.90;;;;;;5054368;28;9425;-73
2022/01/14 02:11:48;;;;;;;;;122.25;112.25;3.50;58.00;;;;;;5054136;28;8856;-73
2022/01/14 02:14:52;;;;;;;;;156.75;139.75;3.70;57.40;;;;;;5054392;28;8771;-72
2022/01/14 02:17:31;;;;;;;;;137.75;128.25;3.70;57.70;;;;;;5053974;28;9484;-73
2022/01/14 02:22:49;;;;;;;;;138.25;127.25;4.10;57.40;;;;;;5054087;28;8743;-72
2022/01/14 02:25:16;;;;;;;;;136.75;120.75;4.10;57.50;;;;;;5054007;28;9440;-72
2022/01/14 02:27:43;;;;;;;;;125.00;108.00;3.90;57.30;;;;;;5053630;28;8827;-73
2022/01/14 02:30:10;;;;;;;;;115.50;102.00;4.20;56.60;;;;;;5053916;28;8944;-73
2022/01/14 02:32:36;;;;;;;;;129.25;114.50;4.30;56.60;;;;;;5055405;28;8785;-72
2022/01/14 02:35:03;;;;;;;;;131.25;118.50;4.10;56.90;;;;;;5057968;28;8783;-71
2022/01/14 02:37:28;;;;;;;;;135.25;118.75;3.90;57.00;;;;;;5058019;28;8815;-71
2022/01/14 02:39:55;;;;;;;;;124.25;106.25;3.90;57.30;;;;;;5057796;28;9410;-72
2022/01/14 02:42:21;;;;;;;;;125.25;112.00;4.00;57.30;;;;;;5058009;28;9460;-71
2022/01/14 02:44:48;;;;;;;;;127.25;109.50;3.80;57.30;;;;;;5057743;28;8771;-72
2022/01/14 02:47:17;;;;;;;;;101.75;79.50;3.70;58.60;;;;;;5057715;28;8798;-73
2022/01/14 02:49:43;;;;;;;;;110.25;98.25;3.40;57.90;;;;;;5057512;28;8767;-72
2022/01/14 02:52:09;;;;;;;;;99.50;81.25;3.30;58.90;;;;;;5057750;28;8797;-72
2022/01/14 02:55:02;;;;;;;;;105.25;85.75;3.70;58.20;;;;;;5057433;28;9536;-72
2022/01/14 02:57:29;;;;;;;;;122.25;110.75;3.50;58.50;;;;;;5057348;28;8949;-72
2022/01/14 02:59:56;;;;;;;;;130.00;114.75;3.20;60.00;;;;;;5057355;28;8809;-72
2022/01/14 03:02:23;;;;;;;;;115.00;104.00;3.30;59.50;;;;;;5057288;28;8771;-72
2022/01/14 03:04:50;;;;;;;;;108.50;93.50;3.00;60.90;;;;;;5057308;28;8767;-72
2022/01/14 03:07:16;;;;;;;;;109.25;98.25;3.10;60.50;;;;;;5057186;28;8799;-72
2022/01/14 03:09:41;;;;;;;;;111.00;99.00;3.00;61.00;;;;;;5057202;28;8767;-72
2022/01/14 03:12:07;;;;;;;;;108.00;91.75;3.10;60.80;;;;;;5057493;28;8812;-72
2022/01/14 03:14:33;;;;;;;;;116.25;103.50;3.30;60.20;;;;;;5057380;28;9441;-72
2022/01/14 03:17:00;;;;;;;;;110.00;97.00;3.20;60.50;;;;;;5056972;28;8791;-72
2022/01/14 03:19:27;;;;;;;;;102.50;90.25;3.20;60.30;;;;;;5056992;28;8759;-72
2022/01/14 03:22:05;;;;;;;;;114.50;98.00;3.50;59.90;;;;;;5056952;28;8771;-71
2022/01/14 03:27:03;;;;;;;;;134.25;111.25;3.70;58.90;;;;;;5056943;28;8771;-74
2022/01/14 03:29:29;;;;;;;;;125.75;114.25;3.90;57.80;;;;;;5056684;28;9527;-72
2022/01/14 03:31:56;;;;;;;;;115.25;107.25;4.20;57.90;;;;;;5057058;28;8763;-71
2022/01/14 03:34:22;;;;;;;;;130.00;115.75;4.10;57.10;;;;;;5056794;28;8890;-71
2022/01/14 03:36:48;;;;;;;;;139.00;122.00;3.90;57.90;;;;;;5056519;28;8806;-72
2022/01/14 03:39:13;;;;;;;;;133.00;119.50;3.90;58.20;;;;;;5056613;28;8783;-72
2022/01/14 03:41:39;;;;;;;;;128.50;115.75;4.10;57.50;;;;;;5056837;28;8770;-71
2022/01/14 03:44:05;;;;;;;;;139.50;125.75;4.00;57.20;;;;;;5055342;28;8751;-71
2022/01/14 03:46:32;;;;;;;;;123.50;114.25;3.80;58.20;;;;;;5056835;28;8771;-73
2022/01/14 03:48:57;;;;;;;;;126.00;114.75;3.70;58.90;;;;;;5056463;28;8779;-72
2022/01/14 03:51:24;;;;;;;;;147.75;121.50;3.80;59.10;;;;;;5056430;28;8892;-72
2022/01/14 03:53:50;;;;;;;;;133.00;123.50;3.80;59.40;;;;;;5056672;28;8783;-71
2022/01/14 03:56:16;;;;;;;;;139.75;129.50;3.70;59.60;;;;;;5056276;28;8803;-72
2022/01/14 03:58:43;;;;;;;;;136.50;118.25;3.50;60.40;;;;;;5056286;28;8774;-72
2022/01/14 04:01:10;;;;;;;;;153.25;130.25;3.50;61.20;;;;;;5056266;28;8751;-72
2022/01/14 04:03:36;;;;;;;;;131.50;116.00;3.30;62.00;;;;;;5056228;28;8774;-72
2022/01/14 04:06:03;;;;;;;;;128.50;117.50;3.30;61.80;;;;;;5055156;28;8763;-72
2022/01/14 04:08:29;;;;;;;;;125.50;117.25;3.70;60.40;;;;;;5056387;28;8810;-72
2022/01/14 04:10:57;;;;;;;;;108.00;96.50;3.50;59.70;;;;;;5055095;28;8767;-72
2022/01/14 04:13:35;;;;;;;;;134.00;112.75;3.40;59.90;;;;;;5056281;28;8767;-71
2022/01/14 04:16:01;;;;;;;;;133.50;129.00;3.40;60.00;;;;;;5056039;28;8790;-71
2022/01/14 04:18:27;;;;;;;;;129.25;114.00;3.00;61.70;;;;;;5055962;28;8765;-72
2022/01/14 04:20:53;;;;;;;;;139.25;122.25;2.90;62.00;;;;;;5056275;28;8858;-73
2022/01/14 04:23:24;;;;;;;;;141.25;127.00;2.90;61.70;;;;;;5055840;28;8885;-73
2022/01/14 04:25:53;;;;;;;;;123.00;110.00;2.80;61.70;;;;;;5055867;28;8849;-73
2022/01/14 04:28:20;;;;;;;;;122.75;109.75;2.90;61.40;;;;;;5055542;28;8814;-71
2022/01/14 04:30:47;;;;;;;;;134.00;117.00;2.80;61.70;;;;;;5055967;28;9475;-71
2022/01/14 04:33:13;;;;;;;;;134.00;117.75;3.30;60.60;;;;;;5054535;28;8775;-71
2022/01/14 04:35:39;;;;;;;;;133.25;116.25;3.60;59.30;;;;;;5055749;28;8805;-71
2022/01/14 04:38:06;;;;;;;;;154.00;136.25;3.60;58.40;;;;;;5055547;28;8795;-72
2022/01/14 04:40:32;;;;;;;;;152.25;134.75;3.70;57.40;;;;;;5055571;28;8744;-72
2022/01/14 04:42:59;;;;;;;;;139.50;121.00;3.50;58.70;;;;;;5055411;28;8860;-71
2022/01/14 04:48:02;;;;;;;;;115.00;105.75;3.60;58.20;;;;;;5055483;28;8744;-71
2022/01/14 04:50:28;;;;;;;;;151.50;138.25;3.70;57.60;;;;;;5055294;28;8763;-71
2022/01/14 04:52:54;;;;;;;;;153.50;133.00;3.50;58.00;;;;;;5055232;28;8825;-71
2022/01/14 04:55:23;;;;;;;;;153.75;138.25;3.30;59.00;;;;;;5055096;28;8798;-71
2022/01/14 04:57:50;;;;;;;;;162.75;144.25;3.40;59.50;;;;;;5055123;28;8790;-72
2022/01/14 05:00:19;;;;;;;;;183.00;160.25;3.30;59.20;;;;;;5055053;28;8805;-71
2022/01/14 05:02:45;;;;;;;;;205.25;181.50;3.30;59.70;;;;;;5055307;28;9695;-72
2022/01/14 05:05:11;;;;;;;;;161.25;141.00;3.20;60.00;;;;;;5055009;28;8786;-72
2022/01/14 05:07:38;;;;;;;;;153.50;137.75;3.20;60.00;;;;;;5053862;28;8791;-71
2022/01/14 05:12:34;;;;;;;;;145.00;131.50;3.40;59.30;;;;;;5054907;28;9461;-72
2022/01/14 05:15:01;;;;;;;;;149.25;135.25;3.20;59.40;;;;;;5054792;28;8771;-71
2022/01/14 05:17:27;;;;;;;;;157.50;134.75;3.00;60.10;;;;;;5054868;28;8771;-71
2022/01/14 05:19:54;;;;;;;;;154.25;141.50;2.80;61.10;;;;;;5054022;28;8790;-70
2022/01/14 05:22:21;;;;;;;;;156.25;134.00;2.60;61.80;;;;;;5054779;28;8771;-71
2022/01/14 05:24:47;;;;;;;;;151.00;134.75;2.80;61.30;;;;;;5054964;28;8775;-72
2022/01/14 05:27:13;;;;;;;;;144.25;119.00;2.30;63.30;;;;;;5054616;28;8779;-71
2022/01/14 05:29:39;;;;;;;;;154.75;137.25;2.20;63.40;;;;;;5054537;28;8841;-73
2022/01/14 05:32:09;;;;;;;;;162.25;141.75;2.40;62.90;;;;;;5054497;28;8783;-72
2022/01/14 05:34:36;;;;;;;;;155.50;136.00;2.60;62.20;;;;;;5053531;28;9479;-70
2022/01/14 05:37:04;;;;;;;;;145.00;122.50;2.70;61.90;;;;;;5054308;28;8980;-71
2022/01/14 05:39:31;;;;;;;;;158.50;139.75;2.80;60.80;;;;;;5054494;28;8771;-73
2022/01/14 05:41:59;;;;;;;;;173.50;149.75;2.70;60.70;;;;;;5054709;28;8802;-72
2022/01/14 05:44:26;;;;;;;;;166.00;145.75;3.00;59.90;;;;;;5054552;28;8797;-73
2022/01/14 05:46:53;;;;;;;;;167.25;150.00;2.80;59.60;;;;;;5054413;28;8771;-75
2022/01/14 05:49:21;;;;;;;;;166.25;145.00;2.60;61.10;;;;;;5054586;28;8859;-71
2022/01/14 05:51:47;;;;;;;;;182.25;155.25;2.40;61.40;;;;;;5054289;28;8802;-64
2022/01/14 05:54:14;;;;;;;;;163.25;140.00;2.60;61.00;;;;;;5054369;28;8844;-71
2022/01/14 05:56:40;;;;;;;;;135.25;123.00;2.90;59.80;;;;;;5054442;28;8791;-71
2022/01/14 05:59:05;;;;;;;;;123.50;111.50;2.20;62.00;;;;;;5054464;28;8763;-72
2022/01/14 06:01:32;;;;;;;;;121.00;109.75;2.00;62.90;;;;;;5054264;28;8760;-72
2022/01/14 06:03:59;;;;;;;;;119.00;110.50;2.00;62.50;;;;;;5054227;28;8755;-72
2022/01/14 06:06:24;;;;;;;;;126.75;106.75;2.20;61.80;;;;;;5054444;28;8783;-72
2022/01/14 06:08:51;;;;;;;;;115.50;104.00;2.30;61.20;;;;;;5058187;28;8811;-72
2022/01/14 06:11:17;;;;;;;;;138.50;115.50;2.50;60.30;;;;;;5058367;28;8755;-72
2022/01/14 06:13:43;;;;;;;;;123.00;107.50;2.70;59.60;;;;;;5058373;28;9441;-72
2022/01/14 06:16:09;;;;;;;;;127.00;117.50;2.90;58.90;;;;;;5058353;28;8879;-71
2022/01/14 06:18:35;;;;;;;;;126.00;113.75;2.60;59.20;;;;;;5058138;28;8778;-71
2022/01/14 06:21:02;;;;;;;;;126.00;112.50;2.20;60.60;;;;;;5058383;28;8853;-71
2022/01/14 06:23:27;;;;;;;;;124.50;111.75;1.90;61.80;;;;;;5058406;28;8767;-72
2022/01/14 06:25:53;;;;;;;;;123.50;109.50;2.00;61.80;;;;;;5058083;28;8801;-71
2022/01/14 06:28:19;;;;;;;;;140.00;124.25;1.90;62.40;;;;;;5057938;28;8798;-73
2022/01/14 06:30:45;;;;;;;;;153.50;140.00;2.10;61.70;;;;;;5057968;28;8797;-72
2022/01/14 06:33:11;;;;;;;;;156.75;138.00;2.30;61.00;;;;;;5058009;28;8751;-72
2022/01/14 06:35:37;;;;;;;;;164.25;144.00;2.30;61.20;;;;;;5057838;28;8810;-72
2022/01/14 06:38:03;;;;;;;;;178.75;159.00;2.40;60.90;;;;;;5057745;28;8803;-72
2022/01/14 06:40:30;;;;;;;;;162.50;148.25;2.50;59.90;;;;;;5057781;28;8794;-72
2022/01/14 06:42:56;;;;;;;;;167.50;140.75;2.60;59.40;;;;;;5057786;28;8771;-69
2022/01/14 06:45:22;;;;;;;;;158.25;139.75;2.70;58.90;;;;;;5057949;28;8797;-70
2022/01/14 06:47:48;;;;;;;;;181.25;161.25;2.50;59.60;;;;;;5057506;28;9378;-72
2022/01/14 06:50:15;;;;;;;;;199.75;173.50;2.20;61.50;;;;;;5057672;28;8783;-69
2022/01/14 06:52:41;;;;;;;;;253.00;223.50;2.00;63.20;;;;;;5057645;28;8763;-67
2022/01/14 06:55:08;;;;;;;;;292.50;265.25;1.90;63.10;;;;;;5057341;28;8828;-69
2022/01/14 06:57:35;;;;;;;;;301.25;267.75;2.20;62.20;;;;;;5057712;28;8782;-67
2022/01/14 07:13:32;;;;;;;;;262.00;235.75;1.80;62.50;;;;;;5088088;27;13542;-69
2022/01/14 07:15:57;;;;;;;;;274.25;256.75;2.20;63.10;;;;;;5091979;28;8791;-68
2022/01/14 07:18:23;;;;;;;;;288.50;257.50;2.40;61.70;;;;;;5091712;28;8760;-69
2022/01/14 07:20:49;;;;;;;;;318.00;278.25;2.20;61.50;;;;;;5091324;28;8819;-69
2022/01/14 07:23:16;;;;;;;;;322.75;292.00;2.10;62.00;;;;;;5091679;28;8767;-68
2022/01/14 07:25:42;;;;;;;;;320.25;287.25;2.00;63.10;;;;;;5091976;28;8768;-69
2022/01/14 07:28:08;;;;;;;;;324.00;289.25;2.20;62.80;;;;;;5091757;28;8783;-68
2022/01/14 07:30:33;;;;;;;;;317.75;292.25;2.60;61.20;;;;;;5091600;28;8899;-69
2022/01/14 07:32:59;;;;;;;;;440.25;406.75;2.90;59.70;;;;;;5091431;28;8799;-69
2022/01/14 07:35:25;;;;;;;;;328.00;291.25;3.30;58.70;;;;;;5090260;28;8871;-69
2022/01/14 07:37:51;;;;;;;;;339.50;306.50;3.60;57.60;;;;;;5091333;28;9534;-69
2022/01/14 07:40:17;;;;;;;;;335.75;303.75;3.60;57.00;;;;;;5091731;28;8775;-69
2022/01/14 07:42:42;;;;;;;;;277.75;246.50;3.70;56.80;;;;;;5091455;28;8855;-69
2022/01/14 07:45:08;;;;;;;;;253.25;221.00;3.80;56.60;;;;;;5091088;28;8753;-67
2022/01/14 07:47:34;;;;;;;;;239.50;205.75;4.00;55.40;;;;;;5091911;28;8764;-68
2022/01/14 07:50:00;;;;;;;;;246.50;220.00;4.10;55.10;;;;;;5091534;28;8875;-68
2022/01/14 07:52:26;;;;;;;;;262.50;236.75;4.00;55.60;;;;;;5091231;28;8807;-67
2022/01/14 07:54:52;;;;;;;;;298.25;267.00;4.20;55.00;;;;;;5091203;28;8772;-68
2022/01/14 07:57:19;;;;;;;;;281.75;245.25;4.30;54.90;;;;;;5089838;28;8780;-68
2022/01/14 07:59:45;;;;;;;;;260.25;242.50;4.30;55.10;;;;;;5091081;28;8753;-68
2022/01/14 08:02:13;;;;;;;;;258.25;232.25;4.50;54.50;;;;;;5090793;28;8819;-70
2022/01/14 08:04:40;;;;;;;;;314.75;281.50;4.10;55.90;;;;;;5090830;28;8787;-67
2022/01/14 08:07:09;;;;;;;;;305.00;271.75;4.00;56.60;;;;;;5090982;28;8776;-69
2022/01/14 08:09:40;;;;;;;;;327.75;301.00;4.20;57.10;;;;;;5090726;28;8782;-70
2022/01/14 08:12:07;;;;;;;;;343.25;302.25;4.60;55.10;;;;;;5090499;28;8824;-70
2022/01/14 08:14:33;;;;;;;;;316.00;278.75;4.40;55.00;;;;;;5077045;28;9627;-70
2022/01/14 08:17:00;;;;;;;;;305.50;277.00;4.60;55.50;;;;;;5077085;28;8760;-65
2022/01/14 08:19:25;;;;;;;;;278.00;256.00;4.20;56.60;;;;;;5076321;28;8772;-66
2022/01/14 08:21:51;;;;;;;;;260.00;236.00;4.60;55.70;;;;;;5077233;28;8812;-72
2022/01/14 08:24:17;;;;;;;;;233.00;205.25;4.50;56.10;;;;;;5077118;28;8764;-65
2022/01/14 08:26:43;;;;;;;;;211.50;189.50;4.50;56.50;;;;;;5077071;28;8811;-65
2022/01/14 08:29:09;;;;;;;;;223.50;200.25;4.20;57.70;;;;;;5076977;28;8768;-65
2022/01/14 08:31:35;;;;;;;;;216.00;205.25;4.50;58.20;;;;;;5077078;28;8917;-65
2022/01/14 08:34:00;;;;;;;;;207.75;188.25;4.50;57.40;;;;;;5076934;28;8784;-65
2022/01/14 08:36:29;;;;;;;;;194.00;172.25;4.60;57.80;;;;;;5076975;28;9438;-68
2022/01/14 08:38:55;;;;;;;;;110.75;107.00;4.40;58.20;;;;;;5076704;28;8760;-65
2022/01/14 08:41:21;;;;;;;;;112.50;105.75;4.00;59.70;;;;;;5076663;28;8824;-66
2022/01/14 08:43:47;;;;;;;;;119.75;108.00;4.20;60.10;;;;;;5076912;28;8772;-66
2022/01/14 08:46:16;;;;;;;;;134.75;119.25;4.00;60.90;;;;;;5076528;28;8861;-66
2022/01/14 08:48:42;;;;;;;;;131.75;122.25;4.70;59.00;;;;;;5076539;28;8887;-66
2022/01/14 08:51:08;;;;;;;;;136.50;124.00;5.40;57.10;;;;;;5076476;28;8879;-65
2022/01/14 08:53:33;;;;;;;;;148.00;136.75;5.50;57.10;;;;;;5076887;28;8772;-68
2022/01/14 08:55:59;;;;;;;;;160.75;147.25;6.00;55.30;;;;;;5076475;28;9357;-70
2022/01/14 08:58:25;;;;;;;;;131.00;116.50;5.40;57.20;;;;;;5076281;28;9398;-70
2022/01/14 09:00:52;;;;;;;;;111.25;98.00;5.30;59.00;;;;;;5076307;28;8787;-69
2022/01/14 09:03:18;;;;;;;;;99.75;81.00;5.40;58.10;;;;;;5076296;28;8799;-69
2022/01/14 09:05:44;;;;;;;;;85.75;66.25;5.50;57.90;;;;;;5076495;28;8776;-70
2022/01/14 09:08:09;;;;;;;;;84.75;66.25;5.00;59.40;;;;;;5076506;28;8761;-69
2022/01/14 09:10:35;;;;;;;;;84.75;67.25;4.60;61.70;;;;;;5076108;28;9386;-66
2022/01/14 09:13:01;;;;;;;;;72.75;57.75;4.80;61.30;;;;;;5075890;28;8832;-66
2022/01/14 09:15:27;;;;;;;;;75.75;60.25;4.90;61.70;;;;;;5075914;28;8788;-67
2022/01/14 09:17:53;;;;;;;;;76.25;60.25;4.90;61.50;;;;;;5075998;28;8811;-67
2022/01/14 09:20:19;;;;;;;;;69.75;55.50;4.80;62.10;;;;;;5075813;28;8783;-67
2022/01/14 09:22:49;;;;;;;;;81.75;63.50;4.80;62.60;;;;;;5076067;28;8827;-67
2022/01/14 09:25:20;;;;;;;;;73.75;60.00;4.70;63.40;;;;;;5075406;28;8748;-67
2022/01/14 09:27:49;;;;;;;;;70.25;56.00;4.90;63.10;;;;;;5075821;28;8744;-68
2022/01/14 09:30:15;;;;;;;;;62.75;51.00;4.90;63.40;;;;;;5075683;28;8787;-68
2022/01/14 09:32:41;;;;;;;;;61.25;47.75;5.00;63.60;;;;;;5075882;28;8772;-68
2022/01/14 09:35:08;;;;;;;;;57.50;47.00;5.30;62.40;;;;;;5075599;28;9546;-69
2022/01/14 09:37:34;;;;;;;;;64.00;51.50;5.00;63.50;;;;;;5075528;28;8930;-67
2022/01/14 09:39:59;;;;;;;;;52.25;43.25;5.20;63.50;;;;;;5075709;28;8792;-68
2022/01/14 09:42:26;;;;;;;;;60.75;51.25;5.30;63.40;;;;;;5075570;28;8816;-66
2022/01/14 09:44:51;;;;;;;;;60.75;49.75;5.30;64.00;;;;;;5075438;28;8763;-66
2022/01/14 09:47:19;;;;;;;;;62.75;50.25;5.90;62.10;;;;;;5075309;28;8745;-66
2022/01/14 09:49:45;;;;;;;;;61.50;47.00;6.10;62.00;;;;;;5075322;28;8891;-68
2022/01/14 09:52:13;;;;;;;;;66.00;52.00;5.90;61.30;;;;;;5074875;28;8776;-67
2022/01/14 09:54:41;;;;;;;;;61.00;51.50;6.10;61.50;;;;;;5074387;28;9386;-69
2022/01/14 09:57:09;;;;;;;;;60.50;50.25;5.80;61.70;;;;;;5074127;28;8756;-69
2022/01/14 09:59:35;;;;;;;;;64.25;50.50;5.80;62.10;;;;;;5073780;28;8775;-57
2022/01/14 10:02:01;;;;;;;;;65.75;53.25;5.80;62.20;;;;;;5073973;28;8792;-61
2022/01/14 10:04:26;;;;;;;;;60.25;48.75;5.80;62.30;;;;;;5075028;28;9449;-62
2022/01/14 10:06:54;;;;;;;;;55.25;46.50;5.80;62.00;;;;;;5074890;28;9282;-61
2022/01/14 10:09:36;;;;;;;;;65.25;51.75;5.70;62.30;;;;;;5073774;28;8800;-61
2022/01/14 10:12:13;;;;;;;;;64.00;52.50;5.80;62.40;;;;;;5071128;28;8813;-61
2022/01/14 10:14:43;;;;;;;;;63.75;51.50;5.70;62.90;;;;;;5075189;28;9434;-66
2022/01/14 10:17:10;;;;;;;;;66.50;51.50;6.00;62.90;;;;;;5073622;28;8768;-66
2022/01/14 10:19:44;;;;;;;;;63.00;51.50;6.60;61.20;;;;;;5074165;28;8772;-66
2022/01/14 10:22:26;;;;;;;;;68.50;54.50;7.30;58.90;;;;;;5073796;28;8796;-65
2022/01/14 10:24:55;;;;;;;;;57.75;45.25;10.70;53.80;;;;;;5053731;28;8896;-65
2022/01/14 10:27:54;;;;;;;;;56.00;45.75;15.00;44.10;;;;;;5054698;28;8770;-65
2022/01/14 10:30:23;;;;;;;;;51.50;42.25;16.70;38.20;;;;;;4993100;28;8809;-64
2022/01/14 10:32:55;;;;;;;;;50.50;43.00;16.70;37.00;;;;;;5007315;28;8761;-66
2022/01/14 10:35:23;;;;;;;;;57.33;46.33;19.10;34.20;;;;;;5012690;28;8825;-65
2022/01/14 10:37:48;;;;;;;;;49.33;42.00;19.70;32.50;;;;;;5012671;28;8780;-66
2022/01/14 10:40:25;;;;;;;;;51.33;42.33;20.10;31.40;;;;;;5012742;28;8804;-65
2022/01/14 10:42:59;;;;;;;;;52.33;44.33;21.50;29.30;;;;;;5012677;28;8990;-66
2022/01/14 10:45:27;;;;;;;;;46.67;39.67;22.60;28.50;;;;;;5012751;28;8776;-66
2022/01/14 10:48:05;;;;;;;;;45.67;39.00;23.50;27.30;;;;;;5012751;28;8808;-65
2022/01/14 10:50:47;;;;;;;;;46.33;39.67;24.90;25.80;;;;;;4996268;28;8807;-66
2022/01/14 10:53:52;;;;;;;;;42.67;37.00;24.80;25.50;;;;;;5012494;28;8776;-66
2022/01/14 10:56:23;;;;;;;;;46.67;40.00;24.20;26.40;;;;;;5012642;28;8780;-65
2022/01/14 10:58:50;;;;;;;;;46.33;39.33;21.40;29.30;;;;;;5012512;28;8800;-65
2022/01/14 11:01:22;;;;;;;;;34.00;32.67;22.60;27.70;;;;;;5012593;28;8773;-64
2022/01/14 11:03:53;;;;;;;;;46.00;39.67;23.50;26.40;;;;;;5012603;28;8866;-64
2022/01/14 11:06:19;;;;;;;;;39.67;36.00;22.00;28.50;;;;;;5040952;28;8759;-66
2022/01/14 11:08:46;;;;;;;;;50.00;43.00;22.40;28.40;;;;;;5054170;28;8790;-65
2022/01/14 11:11:14;;;;;;;;;48.67;41.00;23.40;27.20;;;;;;5053766;28;8830;-64
2022/01/14 11:13:40;;;;;;;;;51.00;44.00;25.80;25.60;;;;;;5053989;28;8771;-66
2022/01/14 11:16:06;;;;;;;;;49.00;42.00;24.50;25.50;;;;;;5054197;28;8771;-65
2022/01/14 11:18:32;;;;;;;;;48.33;41.33;24.70;25.60;;;;;;5054292;28;8771;-65
2022/01/14 11:23:47;;;;;;;;;50.00;42.67;25.40;24.80;;;;;;5068774;28;8785;-64
2022/01/14 11:26:17;;;;;;;;;35.33;32.00;25.90;24.30;;;;;;5072743;28;8785;-65
2022/01/14 11:28:44;;;;;;;;;46.67;40.67;26.80;23.90;;;;;;5073997;28;8875;-64
2022/01/14 11:31:31;;;;;;;;;42.67;37.33;26.70;23.10;;;;;;5074113;28;8822;-65
2022/01/14 11:34:02;;;;;;;;;43.00;37.33;26.50;23.80;;;;;;5073987;28;8777;-65
2022/01/14 11:36:50;;;;;;;;;43.67;38.33;26.10;24.40;;;;;;5073927;28;8784;-67
2022/01/14 11:39:22;;;;;;;;;40.33;36.00;26.90;24.20;;;;;;5074203;28;9465;-68
2022/01/14 11:42:01;;;;;;;;;43.67;38.00;28.30;22.30;;;;;;5073872;28;8796;-68
2022/01/14 11:44:52;;;;;;;;;46.33;40.33;28.50;22.50;;;;;;5073828;28;9504;-68
2022/01/14 11:47:24;;;;;;;;;43.67;37.67;26.90;22.90;;;;;;5074110;28;8761;-68
2022/01/14 11:49:53;;;;;;;;;46.00;39.33;27.10;23.40;;;;;;5077302;28;8779;-66
2022/01/14 11:52:36;;;;;;;;;46.33;40.33;27.30;23.30;;;;;;5077698;28;8792;-68
2022/01/14 11:55:04;;;;;;;;;40.00;34.67;25.80;24.60;;;;;;5076839;28;8772;-66
2022/01/14 11:57:45;;;;;;;;;40.33;36.00;26.30;24.60;;;;;;5073755;28;8880;-66
2022/01/14 12:02:58;;;;;;;;;47.33;40.33;27.30;23.60;;;;;;5073983;28;8737;-66
2022/01/14 12:05:30;;;;;;;;;45.67;39.67;29.10;22.60;;;;;;5075726;28;8801;-65
2022/01/14 12:08:05;;;;;;;;;42.67;37.33;31.00;21.30;;;;;;5075834;28;8769;-68
2022/01/14 12:10:41;;;;;;;;;43.67;37.67;29.00;21.80;;;;;;5073639;28;8761;-67
2022/01/14 12:13:40;;;;;;;;;44.33;36.00;28.90;22.30;;;;;;5076310;28;8824;-68
2022/01/14 12:16:18;;;;;;;;;45.67;39.00;30.10;21.60;;;;;;5075624;28;9884;-68
2022/01/14 12:19:02;;;;;;;;;42.00;37.00;29.10;21.70;;;;;;5074683;28;8757;-71
2022/01/14 12:21:47;;;;;;;;;47.33;40.33;28.10;22.70;;;;;;5075625;28;8768;-66
2022/01/14 12:24:18;;;;;;;;;43.67;38.33;29.00;22.40;;;;;;5075943;28;8800;-68
2022/01/14 12:27:11;;;;;;;;;45.00;38.33;28.70;22.50;;;;;;5073438;28;8800;-67
2022/01/14 12:29:49;;;;;;;;;44.67;38.67;30.00;22.10;;;;;;5077123;28;8760;-68
2022/01/14 12:32:20;;;;;;;;;46.33;40.33;31.10;20.90;;;;;;5076742;28;8932;-65
2022/01/14 12:34:55;;;;;;;;;48.67;42.00;32.00;20.60;;;;;;5076762;28;8862;-69
2022/01/14 12:37:35;;;;;;;;;42.33;37.00;30.20;21.10;;;;;;5076795;28;8788;-71
2022/01/14 12:40:08;;;;;;;;;42.33;37.33;29.70;21.60;;;;;;5076701;28;8783;-70
2022/01/14 12:42:35;;;;;;;;;40.67;36.00;30.10;21.30;;;;;;5077069;28;8823;-70
2022/01/14 12:45:03;;;;;;;;;38.67;34.33;28.70;21.60;;;;;;5076517;28;8892;-71
2022/01/14 12:47:33;;;;;;;;;45.67;39.67;27.00;23.00;;;;;;5076593;28;8756;-69
2022/01/14 12:50:06;;;;;;;;;49.67;42.67;24.60;25.60;;;;;;5076624;28;8772;-69
2022/01/14 12:52:43;;;;;;;;;44.00;37.67;24.30;26.20;;;;;;5075771;28;8827;-67
2022/01/14 12:55:10;;;;;;;;;46.67;40.00;26.50;24.40;;;;;;5056157;28;8806;-69
2022/01/14 12:57:36;;;;;;;;;44.00;38.00;27.60;23.10;;;;;;5056467;28;8774;-68
2022/01/14 13:00:05;;;;;;;;;47.00;39.33;26.80;23.80;;;;;;5055927;28;8794;-71
2022/01/14 13:02:31;;;;;;;;;46.67;40.33;25.50;24.40;;;;;;5056416;28;8837;-68
2022/01/14 13:05:12;;;;;;;;;43.00;37.33;25.10;25.40;;;;;;5056661;28;8763;-69
2022/01/14 13:07:38;;;;;;;;;38.33;35.00;27.00;24.10;;;;;;5059560;28;8757;-69
2022/01/14 13:10:06;;;;;;;;;44.67;38.67;27.40;23.30;;;;;;5074847;28;8771;-68
2022/01/14 13:12:38;;;;;;;;;42.00;37.00;28.20;23.00;;;;;;5074419;28;8833;-69
2022/01/14 13:15:05;;;;;;;;;51.00;44.00;27.90;23.30;;;;;;5074818;28;8892;-69
2022/01/14 13:17:38;;;;;;;;;55.00;46.67;28.60;22.70;;;;;;5074536;28;8788;-68
2022/01/14 13:20:15;;;;;;;;;57.00;48.00;29.40;22.30;;;;;;5075363;28;8804;-69
2022/01/14 13:22:43;;;;;;;;;46.67;40.00;28.90;22.20;;;;;;5075456;28;8768;-69
2022/01/14 13:25:14;;;;;;;;;48.67;42.00;27.20;23.00;;;;;;5074664;28;8796;-70